Time;durP1;ratioP1;P1;durP2;ratioP2;P2;SDS_P1;SDS_P2;PMS_P1;PMS_P2;Temp;Humidity;BMP_temperature;BMP_pressure;BME280_temperature;BME280_humidity;BME280_pressure;Samples;Min_cycle;Max_cycle;Signal;HPM_P1;HPM_P2
2022/12/28 00:00:41;;;;;;;12.13;5.43;;;1.50;99.90;;;-1.12;85.80;101379.59;10521903;28;20056;-89
2022/12/28 00:05:45;;;;;;;16.80;6.73;;;1.40;99.90;;;-1.25;86.39;101373.19;10509701;28;20056;-90
2022/12/28 00:10:47;;;;;;;22.73;7.93;;;1.30;99.90;;;-1.38;86.93;101367.59;10549539;28;20060;-90
2022/12/28 00:16:23;;;;;;;16.07;5.77;;;1.20;99.90;;;-1.51;87.05;101372.47;10526798;28;20063;-91
2022/12/28 00:21:26;;;;;;;13.33;6.10;;;1.00;99.90;;;-1.64;87.68;101371.28;10567497;28;20421;-91
2022/12/28 00:26:32;;;;;;;15.53;6.57;;;0.90;99.90;;;-1.77;87.82;101370.06;10557154;28;20064;-90
2022/12/28 00:31:36;;;;;;;17.97;5.27;;;0.80;99.90;;;-1.90;88.64;101365.34;10557150;28;20057;-89
2022/12/28 00:36:39;;;;;;;14.30;5.13;;;0.70;99.90;;;-1.99;88.66;101360.47;10549237;28;20071;-87
2022/12/28 00:42:02;;;;;;;8.27;3.33;;;0.60;99.90;;;-2.04;89.32;101364.16;10567805;28;20064;-88
2022/12/28 00:47:05;;;;;;;7.97;3.17;;;0.50;99.90;;;-2.11;89.80;101371.38;10553779;28;20530;-89
2022/12/28 00:52:08;;;;;;;8.57;3.37;;;0.40;99.90;;;-2.18;90.11;101377.72;10548622;28;20068;-89
2022/12/28 00:57:11;;;;;;;9.93;3.93;;;0.40;99.90;;;-2.25;90.06;101384.06;10554547;28;20083;-89
2022/12/28 01:02:14;;;;;;;4.73;2.47;;;0.30;99.90;;;-2.34;90.79;101374.88;10550996;28;20056;-89
2022/12/28 01:07:17;;;;;;;14.83;3.50;;;0.30;99.90;;;-2.39;90.60;101381.16;10555090;28;20087;-89
2022/12/28 01:12:20;;;;;;;7.97;3.17;;;0.20;99.90;;;-2.47;91.06;101382.25;10556500;28;20387;-89
2022/12/28 01:17:23;;;;;;;5.20;2.80;;;0.10;99.90;;;-2.53;91.49;101379.88;10573309;28;20063;-89
2022/12/28 01:22:27;;;;;;;6.93;3.00;;;0.00;99.90;;;-2.55;91.91;101384.28;10529198;28;20067;-90
2022/12/28 01:27:29;;;;;;;9.00;4.10;;;0.00;99.90;;;-2.55;92.14;101396.47;10566821;28;20056;-87
2022/12/28 01:32:32;;;;;;;18.63;7.87;;;0.00;99.90;;;-2.60;92.60;101404.41;10539795;28;20064;-86
2022/12/28 01:37:35;;;;;;;16.67;5.97;;;-0.10;99.90;;;-2.56;92.79;101399.97;10570425;28;20102;-85
2022/12/28 01:42:38;;;;;;;16.20;5.60;;;0.00;99.90;;;-2.60;93.21;101399.22;10536629;28;20561;-85
2022/12/28 01:47:42;;;;;;;13.53;5.67;;;-0.10;99.90;;;-2.63;93.79;101396.75;10552490;28;20061;-84
2022/12/28 01:52:58;;;;;;;11.07;4.53;;;-0.10;99.90;;;-2.67;93.98;101382.13;10529025;28;20527;-83
2022/12/28 01:58:10;;;;;;;8.47;3.10;;;-0.10;99.90;;;-2.57;94.62;101378.31;10541368;28;20639;-84
2022/12/28 02:03:20;;;;;;;3.90;1.97;;;-0.10;99.90;;;-2.29;95.81;101383.34;10533723;28;20055;-84
2022/12/28 02:08:40;;;;;;;4.23;2.00;;;0.10;99.90;;;-1.83;97.30;101380.75;10546907;28;20067;-85
2022/12/28 02:13:46;;;;;;;5.70;2.10;;;0.40;99.90;;;-1.37;96.73;101369.31;10558015;28;20056;-85
2022/12/28 02:18:50;;;;;;;5.97;1.83;;;0.90;99.90;;;-1.06;96.56;101363.66;10537316;28;20056;-85
2022/12/28 02:24:30;;;;;;;5.80;2.03;;;1.20;99.90;;;-0.83;95.42;101376.59;10538678;28;20532;-86
2022/12/28 02:30:06;;;;;;;4.50;2.17;;;1.50;99.90;;;-0.53;95.23;101376.16;10558650;28;20076;-86
2022/12/28 02:35:44;;;;;;;4.47;2.10;;;1.70;99.90;;;-0.42;94.11;101371.31;10550193;28;20137;-86
2022/12/28 02:40:58;;;;;;;7.30;2.13;;;1.90;99.90;;;-0.56;92.64;101371.91;10515790;28;20527;-86
2022/12/28 02:52:00;;;;;;;8.67;4.60;;;1.90;99.90;;;-0.70;91.69;101378.66;10561387;28;20068;-87
2022/12/28 02:58:08;;;;;;;4.73;2.70;;;1.80;99.90;;;-0.64;92.49;101365.34;10555273;28;20059;-87
2022/12/28 03:03:31;;;;;;;7.57;2.50;;;1.70;99.90;;;-0.29;92.70;101361.16;10518789;28;20063;-88
2022/12/28 03:09:11;;;;;;;4.93;2.30;;;2.00;99.90;;;-0.16;91.91;101345.75;10560208;28;20060;-83
2022/12/28 03:14:27;;;;;;;4.07;1.90;;;2.10;99.90;;;-0.18;91.15;101351.06;10518152;28;20052;-84
2022/12/28 03:36:33;;;;;;;8.03;3.80;;;1.30;99.90;;;-1.60;89.98;101352.00;10543783;28;20067;-83
2022/12/28 03:47:46;;;;;;;6.30;3.53;;;0.70;99.90;;;-2.12;90.96;101351.44;10496383;28;20103;-87
2022/12/28 03:52:51;;;;;;;7.37;3.53;;;0.50;99.90;;;-2.32;91.09;101344.41;10481257;28;20542;-89
2022/12/28 03:57:55;;;;;;;8.23;4.17;;;0.30;99.90;;;-2.52;91.65;101339.94;10482968;28;20056;-88
2022/12/28 04:02:58;;;;;;;9.60;4.53;;;0.10;99.90;;;-2.72;91.73;101334.59;10482129;28;20071;-88
2022/12/28 04:08:01;;;;;;;10.10;3.97;;;-0.10;99.90;;;-2.83;92.53;101334.13;10492169;28;20088;-84
2022/12/28 04:13:04;;;;;;;9.80;4.27;;;-0.20;99.90;;;-2.94;93.13;101320.66;10469731;28;20057;-84
2022/12/28 04:18:07;;;;;;;11.03;4.33;;;-0.30;99.90;;;-3.05;93.59;101319.31;10476178;28;20057;-83
2022/12/28 04:23:10;;;;;;;11.00;5.63;;;-0.40;99.90;;;-3.10;94.06;101326.41;10469055;28;20565;-83
2022/12/28 04:28:13;;;;;;;16.47;6.90;;;-0.50;99.90;;;-3.18;94.12;101323.22;10502013;28;20061;-84
2022/12/28 04:33:16;;;;;;;22.07;8.10;;;-0.60;99.90;;;-3.25;94.76;101311.34;10485743;28;20066;-83
2022/12/28 04:38:20;;;;;;;12.83;5.63;;;-0.60;99.90;;;-3.27;95.28;101315.75;10498046;28;20061;-83
2022/12/28 04:43:23;;;;;;;11.80;5.20;;;-0.70;99.90;;;-3.33;95.70;101310.75;10481004;28;20072;-86
2022/12/28 04:48:27;;;;;;;14.30;6.57;;;-0.70;99.90;;;-3.34;95.80;101316.88;10481667;28;20057;-85
2022/12/28 04:53:34;;;;;;;12.37;6.47;;;-0.70;99.90;;;-3.40;96.24;101306.69;10561403;28;20094;-85
2022/12/28 04:58:37;;;;;;;9.70;4.67;;;-0.80;99.90;;;-3.47;96.40;101313.00;10532685;28;20060;-86
2022/12/28 05:03:43;;;;;;;24.63;8.27;;;-0.80;99.90;;;-3.47;96.61;101315.59;10519353;28;20092;-86
2022/12/28 05:08:56;;;;;;;13.43;6.10;;;-0.80;99.90;;;-3.53;96.88;101316.63;10548475;28;20137;-86
2022/12/28 05:13:59;;;;;;;12.40;6.27;;;-0.90;99.90;;;-3.59;96.96;101314.25;10565777;28;20141;-86
2022/12/28 05:19:02;;;;;;;12.57;5.83;;;-1.00;99.90;;;-3.64;97.57;101310.94;10558128;28;20057;-87
2022/12/28 05:24:06;;;;;;;17.17;8.37;;;-1.00;99.90;;;-3.67;97.58;101322.28;10525139;28;20083;-87
2022/12/28 05:29:08;;;;;;;16.57;6.97;;;-1.00;99.90;;;-3.71;97.74;101320.69;10570488;28;20059;-87
2022/12/28 05:34:11;;;;;;;16.00;6.90;;;-1.10;99.90;;;-3.73;98.18;101330.25;10556882;28;20051;-83
2022/12/28 05:39:15;;;;;;;19.67;8.10;;;-1.10;99.90;;;-3.74;98.52;101325.97;10547703;28;20063;-86
2022/12/28 05:44:18;;;;;;;20.27;7.83;;;-1.10;99.90;;;-3.74;98.75;101325.97;10568714;27;20057;-87
2022/12/28 05:49:21;;;;;;;20.20;7.30;;;-1.10;99.90;;;-3.75;98.82;101334.66;10570506;28;20090;-87
2022/12/28 05:54:24;;;;;;;15.40;7.53;;;-1.10;99.90;;;-3.77;98.89;101336.47;10562832;28;20087;-87
2022/12/28 05:59:27;;;;;;;14.90;7.33;;;-1.20;99.90;;;-3.80;99.28;101342.59;10541284;27;20061;-87
2022/12/28 06:04:30;;;;;;;11.80;4.70;;;-1.20;99.90;;;-3.82;99.39;101346.16;10539487;28;20063;-87
2022/12/28 06:09:33;;;;;;;14.17;4.70;;;-1.20;99.90;;;-3.86;99.30;101332.41;10551327;28;20064;-86
2022/12/28 06:14:36;;;;;;;7.70;3.20;;;-1.20;99.90;;;-3.80;99.90;101342.59;10538045;28;20060;-90
2022/12/28 06:19:39;;;;;;;6.77;3.40;;;-1.20;99.90;;;-3.76;99.97;101335.56;10542086;27;20140;-87
2022/12/28 06:24:42;;;;;;;5.50;2.53;;;-1.20;99.90;;;-3.69;100.00;101313.69;10532528;28;20056;-86
2022/12/28 06:29:45;;;;;;;8.30;2.50;;;-1.10;99.90;;;-3.65;100.00;101328.28;10533466;28;20500;-87
2022/12/28 06:34:48;;;;;;;15.70;6.90;;;-1.10;99.90;;;-3.60;100.00;101331.59;10538008;28;20068;-87
2022/12/28 06:39:51;;;;;;;17.87;7.77;;;-1.10;99.90;;;-3.56;100.00;101333.16;10552122;28;20064;-86
2022/12/28 06:44:54;;;;;;;8.30;4.47;;;-1.00;99.90;;;-3.55;100.00;101339.22;10543750;28;20057;-86
2022/12/28 06:49:57;;;;;;;75.70;26.83;;;-1.00;99.90;;;-3.50;100.00;101340.75;10525017;28;20068;-87
2022/12/28 06:55:01;;;;;;;45.27;17.80;;;-1.00;99.90;;;-3.30;100.00;101344.44;10537331;28;20060;-88
2022/12/28 07:00:05;;;;;;;33.07;14.33;;;-0.90;99.90;;;-3.08;100.00;101345.41;10530906;28;20067;-88
2022/12/28 07:05:08;;;;;;;27.70;13.03;;;-0.80;99.90;;;-2.81;100.00;101343.59;10548143;28;20084;-88
2022/12/28 07:10:13;;;;;;;29.47;12.40;;;-0.60;99.90;;;-2.67;100.00;101332.69;10558494;27;20114;-89
2022/12/28 07:15:16;;;;;;;25.00;11.10;;;-0.50;99.90;;;-2.63;100.00;101334.28;10533236;28;20102;-89
2022/12/28 07:20:19;;;;;;;22.03;10.63;;;-0.40;99.90;;;-2.61;100.00;101335.06;10558034;28;20494;-88
2022/12/28 07:25:22;;;;;;;26.27;10.20;;;-0.30;99.90;;;-2.54;100.00;101326.13;10589877;28;20067;-89
2022/12/28 07:30:25;;;;;;;18.07;9.43;;;-0.20;99.90;;;-2.46;100.00;101347.53;10541803;27;20146;-82
2022/12/28 07:35:28;;;;;;;26.30;10.80;;;0.00;99.90;;;-2.15;100.00;101338.56;10539443;28;20057;-81
2022/12/28 07:40:31;;;;;;;18.70;9.40;;;0.10;99.90;;;-1.57;100.00;101345.81;10542978;28;20056;-81
2022/12/28 07:45:34;;;;;;;25.17;11.37;;;0.50;99.90;;;-0.86;100.00;101350.59;10545605;28;20056;-85
2022/12/28 07:50:36;;;;;;;75.27;27.33;;;0.90;99.90;;;-0.17;100.00;101344.06;10555059;28;20133;-85
2022/12/28 07:55:41;;;;;;;39.80;16.27;;;1.30;99.90;;;0.28;100.00;101340.16;10533871;28;20060;-85
2022/12/28 08:00:44;;;;;;;41.10;19.30;;;1.70;99.90;;;0.71;100.00;101344.97;10524457;28;20056;-85
2022/12/28 08:05:47;;;;;;;28.87;13.67;;;2.10;99.90;;;1.04;100.00;101338.97;10514308;28;20072;-86
2022/12/28 08:10:50;;;;;;;31.97;15.30;;;2.40;99.90;;;1.41;99.83;101340.50;10530337;28;20060;-86
2022/12/28 08:15:54;;;;;;;25.47;13.07;;;2.70;99.90;;;1.68;97.75;101338.19;10557724;28;20087;-86
2022/12/28 08:21:09;;;;;;;22.73;11.47;;;3.00;99.90;;;2.07;95.87;101324.66;10550349;28;20505;-86
2022/12/28 08:26:20;;;;;;;20.83;9.33;;;3.40;99.90;;;2.55;94.06;101324.56;10537368;28;20052;-86
2022/12/28 08:31:32;;;;;;;15.48;6.95;;;3.90;99.90;;;2.90;91.85;101320.72;10520578;28;20048;-87
2022/12/28 08:36:35;;;;;;;18.87;9.73;;;4.40;99.90;;;3.31;89.68;101314.75;10535813;28;20063;-87
2022/12/28 08:41:38;;;;;;;18.07;9.90;;;4.90;99.90;;;3.63;87.18;101320.66;10551890;27;20060;-88
2022/12/28 08:46:42;;;;;;;16.93;9.20;;;5.20;99.90;;;3.79;85.18;101303.94;10562420;28;20049;-86
2022/12/28 08:51:44;;;;;;;18.10;9.43;;;5.50;99.90;;;3.78;83.23;101313.59;10557078;28;20106;-86
2022/12/28 08:56:49;;;;;;;49.73;23.17;;;5.60;99.90;;;3.52;81.46;101317.00;10548332;28;20060;-86
2022/12/28 09:01:52;;;;;;;26.37;13.80;;;5.40;99.90;;;2.92;80.72;101318.84;10516357;28;20084;-86
2022/12/28 09:06:55;;;;;;;29.87;15.30;;;5.10;99.90;;;2.41;80.63;101320.97;10546388;28;20063;-86
2022/12/28 09:11:58;;;;;;;25.13;12.27;;;4.70;99.90;;;2.12;81.03;101309.53;10538815;28;20056;-84
2022/12/28 09:17:01;;;;;;;25.17;12.53;;;4.40;99.90;;;2.19;81.78;101296.06;10543612;28;20103;-85
2022/12/28 09:22:04;;;;;;;32.30;14.50;;;4.50;99.90;;;2.42;81.89;101299.06;10551656;28;20515;-85
2022/12/28 09:27:06;;;;;;;23.03;11.67;;;4.80;99.90;;;2.53;82.19;101284.47;10575337;28;20446;-85
2022/12/28 09:32:09;;;;;;;20.37;10.87;;;4.80;99.90;;;2.57;82.05;101288.59;10582025;28;20060;-84
2022/12/28 09:37:12;;;;;;;22.57;12.53;;;4.90;99.90;;;2.41;81.34;101283.41;10568969;28;20060;-85
2022/12/28 09:42:27;;;;;;;24.30;11.40;;;4.80;99.90;;;2.22;81.36;101283.63;10562706;28;20783;-87
2022/12/28 09:47:45;;;;;;;32.23;14.50;;;4.70;99.90;;;2.06;82.06;101285.44;10540350;28;20060;-89
2022/12/28 09:53:25;;;;;;;30.40;13.07;;;4.50;99.90;;;1.91;82.64;101262.69;10544747;28;20056;-86
2022/12/28 09:58:32;;;;;;;28.80;12.93;;;4.30;99.90;;;1.81;83.36;101255.34;10567054;28;20078;-87
2022/12/28 10:03:41;;;;;;;33.53;13.93;;;4.20;99.90;;;1.82;84.07;101241.31;10549633;28;20052;-86
2022/12/28 10:08:48;;;;;;;21.20;11.37;;;4.20;99.90;;;1.84;84.71;101236.81;10549138;28;20167;-87
2022/12/28 10:14:00;;;;;;;24.20;12.03;;;4.20;99.90;;;1.94;85.02;101233.69;10554583;28;20064;-88
2022/12/28 10:19:05;;;;;;;36.90;15.37;;;4.30;99.90;;;2.04;85.38;101222.59;10528509;28;20056;-90
2022/12/28 10:24:12;;;;;;;21.30;11.37;;;4.40;99.90;;;2.15;84.73;101222.78;10559288;28;20501;-87
2022/12/28 10:29:33;;;;;;;32.77;13.90;;;4.50;99.90;;;2.33;84.93;101220.88;10537602;28;20106;-89
2022/12/28 10:34:51;;;;;;;57.00;19.33;;;4.70;99.90;;;2.54;85.01;101231.06;10568428;28;20052;-87
2022/12/28 10:40:41;;;;;;;229.70;56.63;;;4.90;99.90;;;2.67;84.44;101211.00;10527577;28;20064;-87
2022/12/28 10:45:52;;;;;;;42.07;19.37;;;5.00;99.90;;;2.79;84.42;101217.31;10543835;28;20060;-87
2022/12/28 10:51:00;;;;;;;149.75;40.22;;;5.20;99.90;;;2.94;84.15;101211.97;10528799;28;20087;-87
2022/12/28 10:56:20;;;;;;;46.37;15.87;;;5.30;99.90;;;3.09;83.74;101204.91;10563666;28;20562;-87
2022/12/28 11:01:26;;;;;;;39.27;15.33;;;5.50;99.90;;;3.37;83.59;101205.81;10540166;28;20084;-88
2022/12/28 11:07:00;;;;;;;22.17;10.53;;;5.70;99.90;;;3.47;82.74;101201.66;10563939;28;20071;-88
2022/12/28 11:12:25;;;;;;;47.87;16.43;;;5.80;99.90;;;3.63;82.97;101204.16;10522494;28;20427;-89
2022/12/28 11:17:36;;;;;;;70.80;19.57;;;5.90;99.90;;;3.77;82.53;101190.94;10534738;28;20485;-88
2022/12/28 11:22:39;;;;;;;34.83;14.25;;;6.10;99.90;;;3.95;81.98;101179.22;10549262;28;20133;-88
2022/12/28 11:27:47;;;;;;;35.20;15.10;;;6.30;99.90;;;4.16;81.98;101176.97;10526851;28;20147;-87
2022/12/28 11:32:57;;;;;;;31.57;14.07;;;6.50;99.90;;;4.33;80.73;101162.69;10549217;28;20149;-88
2022/12/28 11:38:04;;;;;;;24.43;12.07;;;6.70;99.90;;;4.55;79.47;101162.88;10549289;28;20060;-88
2022/12/28 11:43:27;;;;;;;23.60;11.10;;;6.90;99.90;;;4.80;78.09;101145.41;10556205;27;20053;-88
2022/12/28 11:48:42;;;;;;;18.93;9.87;;;7.10;99.90;;;4.85;76.99;101124.81;10545788;28;20596;-89
2022/12/28 11:53:45;;;;;;;21.03;10.03;;;7.20;99.90;;;4.83;76.44;101118.84;10526988;28;20428;-89
2022/12/28 11:58:57;;;;;;;23.37;11.33;;;7.10;99.90;;;4.87;75.57;101099.25;10526542;28;20067;-92
2022/12/28 12:04:00;;;;;;;18.90;10.00;;;7.20;99.90;;;4.92;75.01;101096.25;10553277;28;20106;-91
2022/12/28 12:09:03;;;;;;;17.77;9.23;;;7.20;99.90;;;4.99;75.02;101087.81;10544232;28;20059;-91
2022/12/28 12:14:07;;;;;;;19.70;10.17;;;7.30;99.90;;;5.06;74.23;101081.16;10530855;28;20067;-91
2022/12/28 12:19:25;;;;;;;29.03;13.57;;;7.40;99.90;;;5.20;74.15;101079.31;10524714;28;20512;-83
2022/12/28 12:24:41;;;;;;;16.57;8.30;;;7.50;99.90;;;5.22;72.55;101077.44;10532105;28;20497;-84
2022/12/28 12:29:55;;;;;;;15.47;8.43;;;7.60;99.90;;;5.24;71.73;101078.16;10504301;28;20087;-83
2022/12/28 12:35:04;;;;;;;24.87;12.47;;;7.60;99.90;;;5.19;71.63;101056.56;10517628;28;20496;-84
2022/12/28 12:40:51;;;;;;;22.47;10.93;;;7.60;99.90;;;5.11;71.11;101059.75;10518216;28;20146;-91
2022/12/28 12:46:29;;;;;;;17.67;9.40;;;7.50;99.90;;;5.07;71.15;101059.13;10528159;28;20142;-94
2022/12/28 12:51:56;;;;;;;11.13;6.57;;;7.40;99.90;;;5.09;71.72;101044.03;10550232;28;20060;-93
2022/12/28 12:57:23;;;;;;;22.03;9.23;;;7.40;99.90;;;5.16;72.26;101035.69;10540495;28;20510;-94
2022/12/28 13:02:38;;;;;;;15.10;6.83;;;7.50;99.90;;;5.18;72.23;101036.44;10547507;28;20151;-92
2022/12/28 13:07:41;;;;;;;19.07;8.60;;;7.50;99.90;;;5.18;72.16;101028.53;10566560;28;20075;-91
2022/12/28 13:12:44;;;;;;;15.43;7.70;;;7.50;99.90;;;5.27;72.90;101017.28;10504419;28;20061;-91
2022/12/28 13:18:14;;;;;;;13.87;7.87;;;7.60;99.90;;;5.38;72.05;101019.97;10508786;28;20146;-90
2022/12/28 13:23:43;;;;;;;12.00;6.00;;;7.70;99.90;;;5.37;69.98;101024.41;10537433;28;20142;-91
2022/12/28 13:29:09;;;;;;;10.20;3.80;;;7.70;99.90;;;5.23;67.86;101005.31;10506279;28;20060;-92
2022/12/28 13:34:12;;;;;;;7.73;3.60;;;7.60;97.80;;;5.10;67.59;100990.41;10537991;28;20056;-92
2022/12/28 13:39:17;;;;;;;7.83;4.20;;;7.40;97.60;;;4.96;67.11;100995.00;10543691;28;20060;-91
2022/12/28 13:44:42;;;;;;;12.00;5.60;;;7.30;97.70;;;4.81;67.20;100975.91;10513996;28;20213;-92
2022/12/28 13:50:07;;;;;;;9.77;5.23;;;7.10;97.50;;;4.64;67.34;100963.97;10560154;28;20060;-92
2022/12/28 13:55:22;;;;;;;8.00;3.77;;;7.00;97.50;;;4.53;67.75;100972.63;10544724;28;20098;-92
2022/12/28 14:00:28;;;;;;;7.37;4.47;;;6.90;97.40;;;4.51;68.38;100992.13;10535300;28;20060;-92
2022/12/28 14:05:32;;;;;;;9.13;4.30;;;6.80;97.70;;;4.48;68.66;100993.16;10557150;28;20416;-93
2022/12/28 14:10:36;;;;;;;22.23;12.33;;;6.80;97.70;;;4.46;68.67;100994.25;10516682;28;20052;-90
2022/12/28 14:15:42;;;;;;;19.30;7.73;;;6.80;97.90;;;4.41;69.26;100988.47;10508954;28;20067;-92
2022/12/28 14:20:53;;;;;;;15.30;7.63;;;6.80;97.90;;;4.34;69.71;100974.06;10512732;28;20056;-93
2022/12/28 14:26:03;;;;;;;11.77;6.40;;;6.70;98.10;;;4.22;70.24;100966.09;10515027;28;20079;-92
2022/12/28 14:31:12;;;;;;;7.70;4.70;;;6.60;98.30;;;4.10;71.22;100956.41;10520415;28;20064;-91
2022/12/28 14:36:45;;;;;;;11.77;4.90;;;6.60;98.50;;;3.96;72.01;100948.66;10517976;28;20616;-94
2022/12/28 14:41:49;;;;;;;17.43;6.77;;;6.40;98.70;;;3.85;72.70;100961.72;10527340;28;20114;-85
2022/12/28 14:46:53;;;;;;;12.97;6.53;;;6.30;98.80;;;3.68;73.25;100968.97;10531875;28;20056;-94
2022/12/28 14:52:16;;;;;;;21.83;10.07;;;6.10;99.00;;;3.52;74.13;100970.94;10548674;28;20143;-85
2022/12/28 14:57:35;;;;;;;26.70;11.53;;;5.90;99.20;;;3.39;74.88;100981.44;10520778;28;20061;-85
2022/12/28 15:02:41;;;;;;;48.73;20.63;;;5.80;99.50;;;3.26;75.39;100985.00;10543427;28;20545;-85
2022/12/28 15:07:45;;;;;;;85.70;32.57;;;5.70;99.70;;;3.11;75.83;100992.09;10503950;28;20153;-85
2022/12/28 15:12:48;;;;;;;48.37;21.93;;;5.50;99.80;;;2.91;76.11;100988.97;10552373;28;20147;-85
2022/12/28 15:17:51;;;;;;;24.33;11.97;;;5.40;99.80;;;2.72;76.60;100980.63;10550640;28;20060;-85
2022/12/28 15:22:54;;;;;;;25.23;10.33;;;5.20;99.90;;;2.54;77.21;100979.16;10511814;28;20060;-84
2022/12/28 15:27:57;;;;;;;23.93;9.03;;;5.00;99.90;;;2.37;77.98;100978.44;10509400;28;20053;-84
2022/12/28 15:33:00;;;;;;;16.03;6.83;;;4.90;99.90;;;2.30;78.63;100978.94;10563024;28;20056;-85
2022/12/28 15:38:03;;;;;;;18.63;8.60;;;4.80;99.90;;;2.22;79.13;100983.78;10549555;28;20146;-85
2022/12/28 15:43:06;;;;;;;26.97;10.23;;;4.70;99.90;;;2.15;79.70;100981.56;10551287;28;20060;-85
2022/12/28 15:48:09;;;;;;;34.70;13.33;;;4.60;99.90;;;2.08;80.38;100982.03;10549489;28;20538;-85
2022/12/28 15:53:12;;;;;;;37.83;15.63;;;4.50;99.90;;;1.98;80.53;100979.16;10532778;28;20458;-84
2022/12/28 15:58:15;;;;;;;28.03;13.13;;;4.50;99.90;;;1.91;81.28;100979.59;10504017;28;20056;-83
2022/12/28 16:03:18;;;;;;;30.33;12.97;;;4.40;99.90;;;1.82;81.70;100976.59;10578060;28;20588;-83
2022/12/28 16:08:20;;;;;;;25.93;11.83;;;4.30;99.90;;;1.78;82.19;100977.72;10548963;28;20071;-92
2022/12/28 16:13:24;;;;;;;21.13;11.50;;;4.20;99.90;;;1.72;82.66;100966.75;10516328;28;20443;-96
2022/12/28 16:18:27;;;;;;;30.60;13.83;;;4.20;99.90;;;1.74;82.86;100985.84;10508414;28;20122;-86
2022/12/28 16:23:37;;;;;;;21.57;10.70;;;4.20;99.90;;;1.69;83.39;100978.28;10542011;28;20052;-91
2022/12/28 16:28:40;;;;;;;19.90;9.87;;;4.20;99.90;;;1.66;83.44;100975.00;10499402;28;20064;-86
2022/12/28 16:33:43;;;;;;;28.90;13.57;;;4.10;99.90;;;1.64;84.02;100969.00;10521325;28;20407;-89
2022/12/28 16:38:46;;;;;;;41.97;17.63;;;4.10;99.90;;;1.62;84.40;100971.72;10522041;28;20056;-89
2022/12/28 16:43:51;;;;;;;53.03;24.77;;;4.00;99.90;;;1.54;84.32;100966.94;10558215;28;20056;-84
2022/12/28 16:48:54;;;;;;;32.93;17.30;;;4.00;99.90;;;1.47;84.46;100970.00;10509956;28;20114;-87
2022/12/28 16:53:57;;;;;;;38.10;16.17;;;3.90;99.90;;;1.31;84.94;100970.06;10517940;28;20590;-89
2022/12/28 16:59:00;;;;;;;34.87;14.23;;;3.80;99.90;;;1.11;84.95;100971.22;10512761;28;20056;-92
2022/12/28 17:04:04;;;;;;;23.07;11.00;;;3.60;99.90;;;0.87;85.07;100960.38;10533255;27;20052;-90
2022/12/28 17:09:08;;;;;;;20.07;8.90;;;3.40;99.90;;;0.67;85.58;100958.06;10524922;28;20056;-90
2022/12/28 17:14:11;;;;;;;20.07;8.93;;;3.20;99.90;;;0.47;85.94;100961.78;10521569;28;20518;-90
2022/12/28 17:19:14;;;;;;;20.13;8.27;;;3.00;99.90;;;0.29;86.38;100962.78;10543348;28;20468;-90
2022/12/28 17:24:17;;;;;;;18.37;8.33;;;2.80;99.90;;;0.15;86.84;100958.31;10557379;28;20060;-92
2022/12/28 17:29:21;;;;;;;18.17;8.50;;;2.70;99.90;;;0.01;87.38;100961.66;10534450;28;20052;-91
2022/12/28 17:34:24;;;;;;;19.87;8.73;;;2.60;99.90;;;-0.14;87.68;100949.41;10514960;28;20452;-90
2022/12/28 17:39:27;;;;;;;28.70;12.03;;;2.40;99.90;;;-0.21;88.01;100942.81;10571789;28;20088;-94
2022/12/28 17:44:34;;;;;;;29.63;11.63;;;2.30;99.90;;;-0.34;88.34;100938.25;10557660;28;20060;-91
2022/12/28 17:49:37;;;;;;;23.70;10.13;;;2.20;99.90;;;-0.52;88.72;100931.38;10549942;28;20592;-91
2022/12/28 17:54:40;;;;;;;55.97;18.57;;;2.10;99.90;;;-0.63;89.53;100931.06;10539823;28;20066;-92
2022/12/28 17:59:43;;;;;;;40.60;14.80;;;1.90;99.90;;;-0.73;89.73;100932.44;10538852;28;20048;-90
2022/12/28 18:04:47;;;;;;;47.00;20.33;;;1.80;99.90;;;-0.84;90.49;100935.59;10561185;28;20416;-90
2022/12/28 18:09:50;;;;;;;48.93;21.53;;;1.70;99.90;;;-0.99;90.69;100921.56;10530424;28;20140;-92
2022/12/28 18:14:53;;;;;;;45.87;20.77;;;1.60;99.90;;;-1.15;90.87;100911.03;10571236;27;20048;-93
2022/12/28 18:19:56;;;;;;;50.60;21.97;;;1.40;99.90;;;-1.26;91.02;100902.06;10553364;28;20082;-92
2022/12/28 18:24:58;;;;;;;48.83;20.87;;;1.30;99.90;;;-1.34;91.61;100905.03;10569988;28;20063;-92
2022/12/28 18:30:02;;;;;;;42.30;16.97;;;1.20;99.90;;;-1.40;92.00;100911.41;10555412;28;20139;-92
2022/12/28 18:35:05;;;;;;;55.47;22.10;;;1.20;99.90;;;-1.50;92.23;100915.38;10531965;28;20064;-91
2022/12/28 18:40:09;;;;;;;43.47;18.57;;;1.10;99.90;;;-1.58;92.61;100920.09;10528330;28;20056;-92
2022/12/28 18:45:12;;;;;;;38.20;18.73;;;1.00;99.90;;;-1.64;93.09;100923.00;10560282;28;20055;-92
2022/12/28 18:50:15;;;;;;;39.87;18.70;;;0.90;99.90;;;-1.64;93.54;100936.03;10532915;28;20140;-91
2022/12/28 18:55:20;;;;;;;53.20;20.33;;;0.90;99.90;;;-1.70;94.07;100921.53;10561215;28;20083;-89
2022/12/28 19:00:23;;;;;;;42.47;18.63;;;0.90;99.90;;;-1.73;94.25;100915.63;10545475;28;20064;-88
2022/12/28 19:05:26;;;;;;;35.53;16.37;;;0.80;99.90;;;-1.73;95.14;100934.72;10523350;28;20060;-88
2022/12/28 19:10:29;;;;;;;43.07;18.47;;;0.80;99.90;;;-1.76;95.10;100931.41;10517074;28;20060;-88
2022/12/28 19:15:32;;;;;;;33.83;14.67;;;0.80;99.90;;;-1.78;95.64;100938.44;10513308;28;20109;-88
2022/12/28 19:20:35;;;;;;;36.27;14.57;;;0.80;99.90;;;-1.84;95.91;100934.38;10526507;28;20056;-87
2022/12/28 19:25:38;;;;;;;35.70;13.43;;;0.70;99.90;;;-1.90;95.98;100926.84;10505844;28;20056;-87
2022/12/28 19:30:41;;;;;;;26.33;11.90;;;0.70;99.90;;;-1.95;96.39;100928.81;10507220;28;20412;-87
2022/12/28 19:35:44;;;;;;;31.20;13.90;;;0.60;99.90;;;-2.02;96.26;100938.66;10529218;28;20082;-87
2022/12/28 19:40:47;;;;;;;50.57;17.80;;;0.60;99.90;;;-2.04;96.68;100940.50;10553806;28;20056;-88
2022/12/28 19:45:50;;;;;;;32.93;14.60;;;0.50;99.90;;;-2.10;97.18;100932.09;10528075;28;20060;-87
2022/12/28 19:50:53;;;;;;;36.17;12.87;;;0.50;99.90;;;-2.14;97.41;100940.97;10524061;28;20064;-88
2022/12/28 19:56:12;;;;;;;47.43;17.50;;;0.40;99.90;;;-2.23;97.36;100924.00;10517295;28;20056;-87
2022/12/28 20:01:19;;;;;;;32.27;14.93;;;0.40;99.90;;;-2.26;97.94;100918.94;10521715;28;20056;-87
2022/12/28 20:06:28;;;;;;;42.13;16.10;;;0.30;99.90;;;-2.29;98.04;100919.06;10567798;28;20504;-87
2022/12/28 20:11:31;;;;;;;39.13;16.43;;;0.30;99.90;;;-2.32;98.20;100914.00;10559357;28;20127;-86
2022/12/28 20:16:35;;;;;;;57.10;22.43;;;0.30;99.90;;;-2.30;98.64;100904.34;10566328;28;20107;-87
2022/12/28 20:21:40;;;;;;;47.97;19.53;;;0.20;99.90;;;-2.29;99.07;100904.28;10516031;28;20415;-87
2022/12/28 20:26:43;;;;;;;42.10;17.20;;;0.20;99.90;;;-2.25;99.27;100905.84;10528045;28;20087;-87
2022/12/28 20:31:49;;;;;;;38.67;16.60;;;0.30;99.90;;;-2.24;99.58;100891.06;10511222;28;20060;-87
2022/12/28 20:36:52;;;;;;;36.50;15.07;;;0.30;99.90;;;-2.21;99.59;100890.94;10539191;28;20597;-87
2022/12/28 20:47:17;;;;;;;23.17;9.07;;;0.30;99.90;;;-2.17;100.00;100882.06;10553515;28;20416;-86
2022/12/28 20:52:19;;;;;;;28.57;12.03;;;0.40;99.90;;;-2.11;100.00;100897.41;10544942;28;20064;-87
2022/12/28 20:57:22;;;;;;;25.23;10.63;;;0.40;99.90;;;-2.10;100.00;100901.69;10562988;28;20056;-87
2022/12/28 21:02:25;;;;;;;30.67;12.77;;;0.40;99.90;;;-2.10;100.00;100903.44;10541807;28;20056;-86
2022/12/28 21:07:31;;;;;;;35.10;14.67;;;0.40;99.90;;;-2.13;100.00;100901.84;10568981;28;20063;-86
2022/12/28 21:12:33;;;;;;;41.10;17.93;;;0.40;99.90;;;-2.21;100.00;100890.94;10540857;27;20080;-87
2022/12/28 21:17:37;;;;;;;31.43;14.43;;;0.30;99.90;;;-2.20;100.00;100895.22;10546016;28;20135;-87
2022/12/28 21:22:40;;;;;;;27.03;12.63;;;0.30;99.90;;;-2.29;100.00;100900.84;10528819;28;20082;-87
2022/12/28 21:27:43;;;;;;;25.77;9.53;;;0.20;99.90;;;-2.40;100.00;100888.28;10556829;28;21635;-86
2022/12/28 21:32:49;;;;;;;23.10;10.37;;;0.20;99.90;;;-2.48;100.00;100886.03;10543266;28;20512;-85
2022/12/28 21:37:52;;;;;;;24.27;11.03;;;0.10;99.90;;;-2.56;100.00;100895.94;10544996;28;20079;-86